sensor_id;sensor_type;location;lat;lon;timestamp;P1;durP1;ratioP1;P2;durP2;ratioP2
22967;SDS011;11650;48.106;-1.696;2023-06-22T00:01:57;16.07;;;5.37;;
22967;SDS011;11650;48.106;-1.696;2023-06-22T00:04:23;10.53;;;5.27;;
22967;SDS011;11650;48.106;-1.696;2023-06-22T00:06:49;7.67;;;4.97;;
22967;SDS011;11650;48.106;-1.696;2023-06-22T00:09:15;9.17;;;5.33;;
22967;SDS011;11650;48.106;-1.696;2023-06-22T00:11:40;9.77;;;5.13;;
22967;SDS011;11650;48.106;-1.696;2023-06-22T00:14:06;10.90;;;5.20;;
22967;SDS011;11650;48.106;-1.696;2023-06-22T00:16:32;10.73;;;5.20;;
22967;SDS011;11650;48.106;-1.696;2023-06-22T00:18:58;10.47;;;5.30;;
22967;SDS011;11650;48.106;-1.696;2023-06-22T00:21:28;12.57;;;5.27;;
22967;SDS011;11650;48.106;-1.696;2023-06-22T00:23:54;8.60;;;5.23;;
22967;SDS011;11650;48.106;-1.696;2023-06-22T00:26:20;12.77;;;5.87;;
22967;SDS011;11650;48.106;-1.696;2023-06-22T00:28:46;9.13;;;5.23;;
22967;SDS011;11650;48.106;-1.696;2023-06-22T00:31:12;10.87;;;5.60;;
22967;SDS011;11650;48.106;-1.696;2023-06-22T00:33:38;11.70;;;5.50;;
22967;SDS011;11650;48.106;-1.696;2023-06-22T00:36:04;9.03;;;5.37;;
22967;SDS011;11650;48.106;-1.696;2023-06-22T00:38:31;14.63;;;5.60;;
22967;SDS011;11650;48.106;-1.696;2023-06-22T00:40:56;11.83;;;5.33;;
22967;SDS011;11650;48.106;-1.696;2023-06-22T00:43:22;8.03;;;5.30;;
22967;SDS011;11650;48.106;-1.696;2023-06-22T00:45:48;9.67;;;5.20;;
22967;SDS011;11650;48.106;-1.696;2023-06-22T00:48:14;10.47;;;5.90;;
22967;SDS011;11650;48.106;-1.696;2023-06-22T00:50:40;12.83;;;5.80;;
22967;SDS011;11650;48.106;-1.696;2023-06-22T00:53:07;7.67;;;5.77;;
22967;SDS011;11650;48.106;-1.696;2023-06-22T00:55:37;10.27;;;5.33;;
22967;SDS011;11650;48.106;-1.696;2023-06-22T00:58:08;10.17;;;5.97;;
22967;SDS011;11650;48.106;-1.696;2023-06-22T01:00:35;9.73;;;5.67;;
22967;SDS011;11650;48.106;-1.696;2023-06-22T01:03:02;8.80;;;5.50;;
22967;SDS011;11650;48.106;-1.696;2023-06-22T01:05:28;11.03;;;5.80;;
22967;SDS011;11650;48.106;-1.696;2023-06-22T01:10:53;7.87;;;5.47;;
22967;SDS011;11650;48.106;-1.696;2023-06-22T01:16:36;8.80;;;5.70;;
22967;SDS011;11650;48.106;-1.696;2023-06-22T01:21:55;11.13;;;6.23;;
22967;SDS011;11650;48.106;-1.696;2023-06-22T01:30:01;13.07;;;5.80;;
22967;SDS011;11650;48.106;-1.696;2023-06-22T01:32:31;10.10;;;4.80;;
22967;SDS011;11650;48.106;-1.696;2023-06-22T01:34:58;10.97;;;5.33;;
22967;SDS011;11650;48.106;-1.696;2023-06-22T01:37:27;10.53;;;5.40;;
22967;SDS011;11650;48.106;-1.696;2023-06-22T01:39:54;8.27;;;4.50;;
22967;SDS011;11650;48.106;-1.696;2023-06-22T01:42:23;9.07;;;5.40;;
22967;SDS011;11650;48.106;-1.696;2023-06-22T01:44:49;9.57;;;5.07;;
22967;SDS011;11650;48.106;-1.696;2023-06-22T01:47:16;9.90;;;5.23;;
22967;SDS011;11650;48.106;-1.696;2023-06-22T01:49:42;8.87;;;4.90;;
22967;SDS011;11650;48.106;-1.696;2023-06-22T01:52:08;8.70;;;5.17;;
22967;SDS011;11650;48.106;-1.696;2023-06-22T01:54:34;11.33;;;5.03;;
22967;SDS011;11650;48.106;-1.696;2023-06-22T01:57:02;9.73;;;5.17;;
22967;SDS011;11650;48.106;-1.696;2023-06-22T02:02:10;7.80;;;4.60;;
22967;SDS011;11650;48.106;-1.696;2023-06-22T02:07:13;9.57;;;4.60;;
22967;SDS011;11650;48.106;-1.696;2023-06-22T02:09:43;8.73;;;5.00;;
22967;SDS011;11650;48.106;-1.696;2023-06-22T02:12:11;9.23;;;4.60;;
22967;SDS011;11650;48.106;-1.696;2023-06-22T02:14:39;7.70;;;5.07;;
22967;SDS011;11650;48.106;-1.696;2023-06-22T02:17:05;7.87;;;4.70;;
22967;SDS011;11650;48.106;-1.696;2023-06-22T02:19:35;13.73;;;4.47;;
22967;SDS011;11650;48.106;-1.696;2023-06-22T02:22:02;7.63;;;4.87;;
22967;SDS011;11650;48.106;-1.696;2023-06-22T02:24:28;8.37;;;4.40;;
22967;SDS011;11650;48.106;-1.696;2023-06-22T02:26:56;8.80;;;4.40;;
22967;SDS011;11650;48.106;-1.696;2023-06-22T02:29:23;8.30;;;4.57;;
22967;SDS011;11650;48.106;-1.696;2023-06-22T02:31:48;8.20;;;4.27;;
22967;SDS011;11650;48.106;-1.696;2023-06-22T02:34:14;7.93;;;4.83;;
22967;SDS011;11650;48.106;-1.696;2023-06-22T02:36:43;6.93;;;4.50;;
22967;SDS011;11650;48.106;-1.696;2023-06-22T02:39:15;8.37;;;5.00;;
22967;SDS011;11650;48.106;-1.696;2023-06-22T02:41:47;7.10;;;4.47;;
22967;SDS011;11650;48.106;-1.696;2023-06-22T02:44:16;8.37;;;4.70;;
22967;SDS011;11650;48.106;-1.696;2023-06-22T02:46:43;7.43;;;4.33;;
22967;SDS011;11650;48.106;-1.696;2023-06-22T02:49:09;9.70;;;4.77;;
22967;SDS011;11650;48.106;-1.696;2023-06-22T02:51:39;7.93;;;4.40;;
22967;SDS011;11650;48.106;-1.696;2023-06-22T02:54:07;5.80;;;4.43;;
22967;SDS011;11650;48.106;-1.696;2023-06-22T02:56:33;7.90;;;4.33;;
22967;SDS011;11650;48.106;-1.696;2023-06-22T02:58:58;6.63;;;4.03;;
22967;SDS011;11650;48.106;-1.696;2023-06-22T03:01:26;12.20;;;4.60;;
22967;SDS011;11650;48.106;-1.696;2023-06-22T03:03:53;8.43;;;4.23;;
22967;SDS011;11650;48.106;-1.696;2023-06-22T03:06:19;9.37;;;4.30;;
22967;SDS011;11650;48.106;-1.696;2023-06-22T03:08:49;7.70;;;4.70;;
22967;SDS011;11650;48.106;-1.696;2023-06-22T03:11:15;9.30;;;4.53;;
22967;SDS011;11650;48.106;-1.696;2023-06-22T03:13:41;8.60;;;4.43;;
22967;SDS011;11650;48.106;-1.696;2023-06-22T03:16:06;6.47;;;4.47;;
22967;SDS011;11650;48.106;-1.696;2023-06-22T03:18:32;7.80;;;4.40;;
22967;SDS011;11650;48.106;-1.696;2023-06-22T03:20:58;8.97;;;4.37;;
22967;SDS011;11650;48.106;-1.696;2023-06-22T03:23:23;9.17;;;4.73;;
22967;SDS011;11650;48.106;-1.696;2023-06-22T03:25:49;7.07;;;4.87;;
22967;SDS011;11650;48.106;-1.696;2023-06-22T03:28:15;10.77;;;5.07;;
22967;SDS011;11650;48.106;-1.696;2023-06-22T03:30:41;9.83;;;4.53;;
22967;SDS011;11650;48.106;-1.696;2023-06-22T03:33:06;7.63;;;4.40;;
22967;SDS011;11650;48.106;-1.696;2023-06-22T03:35:32;7.37;;;4.60;;
22967;SDS011;11650;48.106;-1.696;2023-06-22T03:37:58;8.50;;;4.60;;
22967;SDS011;11650;48.106;-1.696;2023-06-22T03:40:23;9.33;;;4.50;;
22967;SDS011;11650;48.106;-1.696;2023-06-22T03:42:49;7.67;;;4.37;;
22967;SDS011;11650;48.106;-1.696;2023-06-22T03:45:15;6.90;;;4.10;;
22967;SDS011;11650;48.106;-1.696;2023-06-22T03:47:41;6.27;;;4.37;;
22967;SDS011;11650;48.106;-1.696;2023-06-22T03:50:06;9.27;;;4.53;;
22967;SDS011;11650;48.106;-1.696;2023-06-22T03:52:32;10.40;;;4.43;;
22967;SDS011;11650;48.106;-1.696;2023-06-22T03:54:58;6.43;;;4.20;;
22967;SDS011;11650;48.106;-1.696;2023-06-22T03:57:23;8.63;;;4.43;;
22967;SDS011;11650;48.106;-1.696;2023-06-22T03:59:49;10.80;;;5.10;;
22967;SDS011;11650;48.106;-1.696;2023-06-22T04:02:15;8.20;;;4.40;;
22967;SDS011;11650;48.106;-1.696;2023-06-22T04:04:41;9.67;;;4.70;;
22967;SDS011;11650;48.106;-1.696;2023-06-22T04:07:06;8.23;;;4.40;;
22967;SDS011;11650;48.106;-1.696;2023-06-22T04:09:32;7.50;;;4.80;;
22967;SDS011;11650;48.106;-1.696;2023-06-22T04:11:58;7.80;;;4.53;;
22967;SDS011;11650;48.106;-1.696;2023-06-22T04:14:24;7.10;;;4.50;;
22967;SDS011;11650;48.106;-1.696;2023-06-22T04:16:49;9.60;;;4.60;;
22967;SDS011;11650;48.106;-1.696;2023-06-22T04:19:15;8.60;;;4.20;;
22967;SDS011;11650;48.106;-1.696;2023-06-22T04:21:43;5.83;;;4.27;;
22967;SDS011;11650;48.106;-1.696;2023-06-22T04:24:09;5.83;;;4.13;;
22967;SDS011;11650;48.106;-1.696;2023-06-22T04:26:35;10.93;;;4.70;;
22967;SDS011;11650;48.106;-1.696;2023-06-22T04:29:05;8.00;;;4.70;;
22967;SDS011;11650;48.106;-1.696;2023-06-22T04:31:31;8.83;;;4.50;;
22967;SDS011;11650;48.106;-1.696;2023-06-22T04:34:01;6.23;;;4.60;;
22967;SDS011;11650;48.106;-1.696;2023-06-22T04:36:32;7.80;;;4.40;;
22967;SDS011;11650;48.106;-1.696;2023-06-22T04:39:06;6.73;;;4.43;;
22967;SDS011;11650;48.106;-1.696;2023-06-22T04:41:34;8.03;;;4.20;;
22967;SDS011;11650;48.106;-1.696;2023-06-22T04:44:13;7.43;;;4.27;;
22967;SDS011;11650;48.106;-1.696;2023-06-22T04:46:50;7.60;;;4.60;;
22967;SDS011;11650;48.106;-1.696;2023-06-22T04:49:24;6.10;;;4.37;;
22967;SDS011;11650;48.106;-1.696;2023-06-22T04:51:57;7.90;;;4.17;;
22967;SDS011;11650;48.106;-1.696;2023-06-22T04:54:26;6.70;;;4.43;;
22967;SDS011;11650;48.106;-1.696;2023-06-22T04:56:52;10.03;;;4.60;;
22967;SDS011;11650;48.106;-1.696;2023-06-22T04:59:27;7.03;;;4.70;;
22967;SDS011;11650;48.106;-1.696;2023-06-22T05:01:58;6.77;;;4.63;;
22967;SDS011;11650;48.106;-1.696;2023-06-22T05:04:25;6.97;;;4.77;;
22967;SDS011;11650;48.106;-1.696;2023-06-22T05:06:53;8.00;;;4.80;;
22967;SDS011;11650;48.106;-1.696;2023-06-22T05:09:19;6.83;;;4.90;;
22967;SDS011;11650;48.106;-1.696;2023-06-22T05:11:46;8.93;;;5.23;;
22967;SDS011;11650;48.106;-1.696;2023-06-22T05:14:12;9.90;;;5.30;;
22967;SDS011;11650;48.106;-1.696;2023-06-22T05:16:38;9.00;;;5.50;;
22967;SDS011;11650;48.106;-1.696;2023-06-22T05:19:05;11.90;;;5.00;;
22967;SDS011;11650;48.106;-1.696;2023-06-22T05:21:31;8.67;;;5.50;;
22967;SDS011;11650;48.106;-1.696;2023-06-22T05:23:57;11.03;;;5.00;;
22967;SDS011;11650;48.106;-1.696;2023-06-22T05:26:27;9.10;;;4.50;;
22967;SDS011;11650;48.106;-1.696;2023-06-22T05:28:54;10.17;;;4.67;;
22967;SDS011;11650;48.106;-1.696;2023-06-22T05:31:20;8.20;;;4.77;;
22967;SDS011;11650;48.106;-1.696;2023-06-22T05:33:46;8.53;;;4.60;;
22967;SDS011;11650;48.106;-1.696;2023-06-22T05:36:13;9.53;;;4.70;;
22967;SDS011;11650;48.106;-1.696;2023-06-22T05:38:39;10.67;;;5.20;;
22967;SDS011;11650;48.106;-1.696;2023-06-22T05:41:05;8.17;;;4.70;;
22967;SDS011;11650;48.106;-1.696;2023-06-22T05:43:31;7.77;;;4.53;;
22967;SDS011;11650;48.106;-1.696;2023-06-22T05:45:57;9.40;;;4.47;;
22967;SDS011;11650;48.106;-1.696;2023-06-22T05:48:24;9.10;;;4.50;;
22967;SDS011;11650;48.106;-1.696;2023-06-22T05:50:50;11.70;;;4.57;;
22967;SDS011;11650;48.106;-1.696;2023-06-22T05:53:16;8.10;;;4.27;;
22967;SDS011;11650;48.106;-1.696;2023-06-22T05:55:41;6.90;;;4.47;;
22967;SDS011;11650;48.106;-1.696;2023-06-22T05:58:07;8.20;;;4.07;;
22967;SDS011;11650;48.106;-1.696;2023-06-22T06:00:33;10.40;;;4.77;;
22967;SDS011;11650;48.106;-1.696;2023-06-22T06:02:59;6.13;;;4.30;;
22967;SDS011;11650;48.106;-1.696;2023-06-22T06:05:29;7.47;;;4.10;;
22967;SDS011;11650;48.106;-1.696;2023-06-22T06:07:55;12.20;;;4.77;;
22967;SDS011;11650;48.106;-1.696;2023-06-22T06:10:21;9.03;;;4.10;;
22967;SDS011;11650;48.106;-1.696;2023-06-22T06:12:47;8.67;;;4.20;;
22967;SDS011;11650;48.106;-1.696;2023-06-22T06:15:12;6.63;;;4.30;;
22967;SDS011;11650;48.106;-1.696;2023-06-22T06:20:13;11.53;;;4.50;;
22967;SDS011;11650;48.106;-1.696;2023-06-22T06:22:39;10.90;;;4.20;;
22967;SDS011;11650;48.106;-1.696;2023-06-22T06:25:05;8.17;;;3.83;;
22967;SDS011;11650;48.106;-1.696;2023-06-22T06:27:31;6.73;;;4.20;;
22967;SDS011;11650;48.106;-1.696;2023-06-22T06:29:56;7.73;;;4.37;;
22967;SDS011;11650;48.106;-1.696;2023-06-22T06:32:22;7.37;;;4.00;;
22967;SDS011;11650;48.106;-1.696;2023-06-22T06:34:48;11.13;;;4.60;;
22967;SDS011;11650;48.106;-1.696;2023-06-22T06:37:13;11.13;;;4.27;;
22967;SDS011;11650;48.106;-1.696;2023-06-22T06:39:40;7.50;;;4.00;;
22967;SDS011;11650;48.106;-1.696;2023-06-22T06:42:06;7.77;;;4.03;;
22967;SDS011;11650;48.106;-1.696;2023-06-22T06:44:31;8.97;;;4.17;;
22967;SDS011;11650;48.106;-1.696;2023-06-22T06:46:57;6.87;;;4.07;;
22967;SDS011;11650;48.106;-1.696;2023-06-22T06:49:23;7.67;;;4.00;;
22967;SDS011;11650;48.106;-1.696;2023-06-22T06:51:48;8.60;;;4.03;;
22967;SDS011;11650;48.106;-1.696;2023-06-22T06:54:15;7.03;;;4.17;;
22967;SDS011;11650;48.106;-1.696;2023-06-22T06:56:40;10.20;;;4.37;;
22967;SDS011;11650;48.106;-1.696;2023-06-22T06:59:09;7.40;;;4.10;;
22967;SDS011;11650;48.106;-1.696;2023-06-22T07:01:35;7.20;;;4.20;;
22967;SDS011;11650;48.106;-1.696;2023-06-22T07:04:00;7.47;;;3.97;;
22967;SDS011;11650;48.106;-1.696;2023-06-22T07:06:27;7.57;;;3.80;;
22967;SDS011;11650;48.106;-1.696;2023-06-22T07:08:57;10.57;;;4.60;;
22967;SDS011;11650;48.106;-1.696;2023-06-22T07:11:22;6.47;;;3.97;;
22967;SDS011;11650;48.106;-1.696;2023-06-22T07:13:48;8.13;;;3.90;;
22967;SDS011;11650;48.106;-1.696;2023-06-22T07:16:13;9.00;;;4.07;;
22967;SDS011;11650;48.106;-1.696;2023-06-22T07:18:39;7.93;;;3.83;;
22967;SDS011;11650;48.106;-1.696;2023-06-22T07:21:05;8.50;;;3.80;;
22967;SDS011;11650;48.106;-1.696;2023-06-22T07:23:32;7.70;;;4.03;;
22967;SDS011;11650;48.106;-1.696;2023-06-22T07:25:57;8.40;;;3.93;;
22967;SDS011;11650;48.106;-1.696;2023-06-22T07:28:26;11.03;;;3.87;;
22967;SDS011;11650;48.106;-1.696;2023-06-22T07:30:52;5.37;;;3.57;;
22967;SDS011;11650;48.106;-1.696;2023-06-22T07:33:18;7.63;;;3.77;;
22967;SDS011;11650;48.106;-1.696;2023-06-22T07:35:44;6.90;;;3.93;;
22967;SDS011;11650;48.106;-1.696;2023-06-22T07:38:11;7.27;;;3.83;;
22967;SDS011;11650;48.106;-1.696;2023-06-22T07:40:37;6.63;;;3.70;;
22967;SDS011;11650;48.106;-1.696;2023-06-22T07:43:03;7.70;;;3.70;;
22967;SDS011;11650;48.106;-1.696;2023-06-22T07:45:29;8.13;;;3.80;;
22967;SDS011;11650;48.106;-1.696;2023-06-22T07:47:55;7.77;;;3.77;;
22967;SDS011;11650;48.106;-1.696;2023-06-22T07:50:20;6.63;;;3.20;;
22967;SDS011;11650;48.106;-1.696;2023-06-22T07:52:46;10.43;;;4.07;;
22967;SDS011;11650;48.106;-1.696;2023-06-22T07:55:13;6.23;;;3.93;;
22967;SDS011;11650;48.106;-1.696;2023-06-22T07:57:38;7.10;;;3.77;;
22967;SDS011;11650;48.106;-1.696;2023-06-22T08:00:06;9.57;;;3.60;;
22967;SDS011;11650;48.106;-1.696;2023-06-22T08:02:39;7.23;;;3.60;;
22967;SDS011;11650;48.106;-1.696;2023-06-22T08:05:06;9.20;;;3.77;;
22967;SDS011;11650;48.106;-1.696;2023-06-22T08:07:33;8.73;;;3.60;;
22967;SDS011;11650;48.106;-1.696;2023-06-22T08:10:02;10.53;;;3.70;;
22967;SDS011;11650;48.106;-1.696;2023-06-22T08:12:28;6.80;;;3.40;;
22967;SDS011;11650;48.106;-1.696;2023-06-22T08:14:54;6.20;;;3.47;;
22967;SDS011;11650;48.106;-1.696;2023-06-22T08:17:20;7.80;;;3.70;;
22967;SDS011;11650;48.106;-1.696;2023-06-22T08:19:45;8.43;;;3.83;;
22967;SDS011;11650;48.106;-1.696;2023-06-22T08:22:11;7.37;;;3.60;;
22967;SDS011;11650;48.106;-1.696;2023-06-22T08:24:36;6.57;;;3.70;;
22967;SDS011;11650;48.106;-1.696;2023-06-22T08:27:02;8.30;;;3.60;;
22967;SDS011;11650;48.106;-1.696;2023-06-22T08:29:28;5.53;;;3.67;;
22967;SDS011;11650;48.106;-1.696;2023-06-22T08:31:54;7.47;;;3.37;;
22967;SDS011;11650;48.106;-1.696;2023-06-22T08:34:19;5.47;;;3.47;;
22967;SDS011;11650;48.106;-1.696;2023-06-22T08:36:48;7.97;;;3.60;;
22967;SDS011;11650;48.106;-1.696;2023-06-22T08:39:16;7.00;;;3.70;;
22967;SDS011;11650;48.106;-1.696;2023-06-22T08:41:42;9.43;;;3.53;;
22967;SDS011;11650;48.106;-1.696;2023-06-22T08:44:08;6.73;;;3.57;;
22967;SDS011;11650;48.106;-1.696;2023-06-22T08:46:34;5.97;;;3.30;;
22967;SDS011;11650;48.106;-1.696;2023-06-22T08:48:59;8.17;;;3.07;;
22967;SDS011;11650;48.106;-1.696;2023-06-22T08:51:26;5.67;;;3.17;;
22967;SDS011;11650;48.106;-1.696;2023-06-22T08:53:51;6.70;;;3.20;;
22967;SDS011;11650;48.106;-1.696;2023-06-22T08:56:17;6.43;;;3.27;;
22967;SDS011;11650;48.106;-1.696;2023-06-22T08:58:43;6.87;;;3.27;;
22967;SDS011;11650;48.106;-1.696;2023-06-22T09:01:09;6.07;;;3.50;;
22967;SDS011;11650;48.106;-1.696;2023-06-22T09:03:34;6.87;;;3.30;;
22967;SDS011;11650;48.106;-1.696;2023-06-22T09:06:02;7.70;;;3.60;;
22967;SDS011;11650;48.106;-1.696;2023-06-22T09:08:28;4.57;;;3.00;;
22967;SDS011;11650;48.106;-1.696;2023-06-22T09:10:54;7.17;;;3.53;;
22967;SDS011;11650;48.106;-1.696;2023-06-22T09:13:19;5.37;;;3.30;;
22967;SDS011;11650;48.106;-1.696;2023-06-22T09:15:45;8.67;;;3.30;;
22967;SDS011;11650;48.106;-1.696;2023-06-22T09:18:11;6.53;;;3.43;;
22967;SDS011;11650;48.106;-1.696;2023-06-22T09:20:38;4.83;;;3.13;;
22967;SDS011;11650;48.106;-1.696;2023-06-22T09:23:03;7.67;;;3.20;;
22967;SDS011;11650;48.106;-1.696;2023-06-22T09:25:29;5.37;;;3.30;;
22967;SDS011;11650;48.106;-1.696;2023-06-22T09:27:55;8.27;;;3.53;;
22967;SDS011;11650;48.106;-1.696;2023-06-22T09:30:21;6.30;;;3.10;;
22967;SDS011;11650;48.106;-1.696;2023-06-22T09:32:46;4.70;;;3.00;;
22967;SDS011;11650;48.106;-1.696;2023-06-22T09:35:12;7.20;;;3.30;;
22967;SDS011;11650;48.106;-1.696;2023-06-22T09:37:38;6.57;;;2.90;;
22967;SDS011;11650;48.106;-1.696;2023-06-22T09:40:05;6.10;;;3.07;;
22967;SDS011;11650;48.106;-1.696;2023-06-22T09:42:36;6.07;;;3.00;;
22967;SDS011;11650;48.106;-1.696;2023-06-22T09:45:02;8.13;;;3.30;;
22967;SDS011;11650;48.106;-1.696;2023-06-22T09:47:28;7.83;;;3.10;;
22967;SDS011;11650;48.106;-1.696;2023-06-22T09:49:54;5.70;;;3.03;;
22967;SDS011;11650;48.106;-1.696;2023-06-22T09:52:20;5.60;;;2.63;;
22967;SDS011;11650;48.106;-1.696;2023-06-22T09:54:46;3.63;;;2.83;;
22967;SDS011;11650;48.106;-1.696;2023-06-22T09:57:12;4.57;;;3.27;;
22967;SDS011;11650;48.106;-1.696;2023-06-22T09:59:38;4.83;;;3.07;;
22967;SDS011;11650;48.106;-1.696;2023-06-22T10:02:06;7.43;;;3.30;;
22967;SDS011;11650;48.106;-1.696;2023-06-22T10:04:33;6.10;;;3.10;;
22967;SDS011;11650;48.106;-1.696;2023-06-22T10:06:59;6.60;;;3.10;;
22967;SDS011;11650;48.106;-1.696;2023-06-22T10:09:24;8.73;;;3.10;;
22967;SDS011;11650;48.106;-1.696;2023-06-22T10:11:50;5.17;;;2.93;;
22967;SDS011;11650;48.106;-1.696;2023-06-22T10:14:16;6.57;;;3.07;;
22967;SDS011;11650;48.106;-1.696;2023-06-22T10:16:42;6.57;;;3.00;;
22967;SDS011;11650;48.106;-1.696;2023-06-22T10:19:07;6.73;;;3.23;;
22967;SDS011;11650;48.106;-1.696;2023-06-22T10:21:33;5.87;;;3.30;;
22967;SDS011;11650;48.106;-1.696;2023-06-22T10:23:59;6.50;;;2.60;;
22967;SDS011;11650;48.106;-1.696;2023-06-22T10:26:30;4.33;;;3.10;;
22967;SDS011;11650;48.106;-1.696;2023-06-22T10:29:00;6.53;;;2.83;;
22967;SDS011;11650;48.106;-1.696;2023-06-22T10:31:27;5.00;;;3.13;;
22967;SDS011;11650;48.106;-1.696;2023-06-22T10:33:53;6.97;;;3.37;;
22967;SDS011;11650;48.106;-1.696;2023-06-22T10:36:20;5.47;;;3.03;;
22967;SDS011;11650;48.106;-1.696;2023-06-22T10:38:46;5.97;;;2.73;;
22967;SDS011;11650;48.106;-1.696;2023-06-22T10:41:12;7.30;;;3.13;;
22967;SDS011;11650;48.106;-1.696;2023-06-22T10:43:38;4.77;;;3.00;;
22967;SDS011;11650;48.106;-1.696;2023-06-22T10:46:04;5.27;;;3.20;;
22967;SDS011;11650;48.106;-1.696;2023-06-22T10:48:29;5.23;;;2.87;;
22967;SDS011;11650;48.106;-1.696;2023-06-22T10:50:55;5.50;;;3.08;;
22967;SDS011;11650;48.106;-1.696;2023-06-22T10:53:21;6.07;;;2.90;;
22967;SDS011;11650;48.106;-1.696;2023-06-22T10:55:47;5.10;;;3.17;;
22967;SDS011;11650;48.106;-1.696;2023-06-22T10:58:12;4.63;;;3.13;;
22967;SDS011;11650;48.106;-1.696;2023-06-22T11:00:38;5.80;;;3.17;;
22967;SDS011;11650;48.106;-1.696;2023-06-22T11:03:04;3.80;;;2.60;;
22967;SDS011;11650;48.106;-1.696;2023-06-22T11:05:29;6.63;;;2.85;;
22967;SDS011;11650;48.106;-1.696;2023-06-22T11:07:55;7.40;;;3.10;;
22967;SDS011;11650;48.106;-1.696;2023-06-22T11:10:21;6.87;;;3.27;;
22967;SDS011;11650;48.106;-1.696;2023-06-22T11:12:46;4.40;;;2.83;;
22967;SDS011;11650;48.106;-1.696;2023-06-22T11:15:12;5.40;;;3.17;;
22967;SDS011;11650;48.106;-1.696;2023-06-22T11:17:38;7.75;;;2.67;;
22967;SDS011;11650;48.106;-1.696;2023-06-22T11:20:04;5.30;;;2.75;;
22967;SDS011;11650;48.106;-1.696;2023-06-22T11:22:36;5.45;;;2.85;;
22967;SDS011;11650;48.106;-1.696;2023-06-22T11:25:05;3.92;;;2.92;;
22967;SDS011;11650;48.106;-1.696;2023-06-22T11:27:31;4.95;;;3.10;;
22967;SDS011;11650;48.106;-1.696;2023-06-22T11:29:57;5.93;;;2.90;;
22967;SDS011;11650;48.106;-1.696;2023-06-22T11:32:23;6.35;;;2.85;;
22967;SDS011;11650;48.106;-1.696;2023-06-22T11:34:49;6.15;;;2.80;;
22967;SDS011;11650;48.106;-1.696;2023-06-22T11:37:14;6.18;;;2.90;;
22967;SDS011;11650;48.106;-1.696;2023-06-22T11:39:40;8.18;;;3.20;;
22967;SDS011;11650;48.106;-1.696;2023-06-22T11:42:07;8.30;;;2.90;;
22967;SDS011;11650;48.106;-1.696;2023-06-22T11:44:34;5.78;;;2.70;;
22967;SDS011;11650;48.106;-1.696;2023-06-22T11:46:59;4.40;;;3.00;;
22967;SDS011;11650;48.106;-1.696;2023-06-22T11:49:26;6.03;;;3.00;;
22967;SDS011;11650;48.106;-1.696;2023-06-22T11:51:52;5.90;;;2.80;;
22967;SDS011;11650;48.106;-1.696;2023-06-22T11:54:18;4.07;;;2.83;;
22967;SDS011;11650;48.106;-1.696;2023-06-22T11:56:43;6.43;;;3.13;;
22967;SDS011;11650;48.106;-1.696;2023-06-22T11:59:09;5.15;;;3.33;;
22967;SDS011;11650;48.106;-1.696;2023-06-22T12:01:34;5.15;;;2.90;;
22967;SDS011;11650;48.106;-1.696;2023-06-22T12:04:00;7.15;;;3.13;;
22967;SDS011;11650;48.106;-1.696;2023-06-22T12:06:26;4.97;;;3.08;;
22967;SDS011;11650;48.106;-1.696;2023-06-22T12:08:52;6.30;;;3.13;;
22967;SDS011;11650;48.106;-1.696;2023-06-22T12:11:18;6.00;;;3.72;;
22967;SDS011;11650;48.106;-1.696;2023-06-22T12:13:43;5.63;;;3.83;;
22967;SDS011;11650;48.106;-1.696;2023-06-22T12:16:09;7.47;;;3.65;;
22967;SDS011;11650;48.106;-1.696;2023-06-22T12:18:34;6.68;;;3.53;;
22967;SDS011;11650;48.106;-1.696;2023-06-22T12:21:00;10.60;;;3.90;;
22967;SDS011;11650;48.106;-1.696;2023-06-22T12:23:26;82.18;;;11.73;;
22967;SDS011;11650;48.106;-1.696;2023-06-22T12:25:51;7.18;;;3.90;;
22967;SDS011;11650;48.106;-1.696;2023-06-22T12:28:17;6.88;;;3.78;;
22967;SDS011;11650;48.106;-1.696;2023-06-22T12:30:42;9.10;;;4.05;;
22967;SDS011;11650;48.106;-1.696;2023-06-22T12:33:08;18.50;;;5.07;;
22967;SDS011;11650;48.106;-1.696;2023-06-22T12:35:34;8.88;;;3.95;;
22967;SDS011;11650;48.106;-1.696;2023-06-22T12:38:00;7.93;;;3.90;;
22967;SDS011;11650;48.106;-1.696;2023-06-22T12:40:25;8.88;;;3.72;;
22967;SDS011;11650;48.106;-1.696;2023-06-22T12:42:51;8.25;;;3.67;;
22967;SDS011;11650;48.106;-1.696;2023-06-22T12:45:17;6.72;;;3.65;;
22967;SDS011;11650;48.106;-1.696;2023-06-22T12:47:43;7.18;;;3.65;;
22967;SDS011;11650;48.106;-1.696;2023-06-22T12:50:09;12.45;;;4.00;;
22967;SDS011;11650;48.106;-1.696;2023-06-22T12:52:36;5.07;;;3.42;;
22967;SDS011;11650;48.106;-1.696;2023-06-22T12:55:04;5.30;;;3.42;;
22967;SDS011;11650;48.106;-1.696;2023-06-22T12:57:29;5.47;;;3.22;;
22967;SDS011;11650;48.106;-1.696;2023-06-22T12:59:55;6.25;;;3.67;;
22967;SDS011;11650;48.106;-1.696;2023-06-22T13:02:22;6.45;;;3.22;;
22967;SDS011;11650;48.106;-1.696;2023-06-22T13:04:47;4.93;;;3.30;;
22967;SDS011;11650;48.106;-1.696;2023-06-22T13:07:13;7.60;;;3.33;;
22967;SDS011;11650;48.106;-1.696;2023-06-22T13:09:38;8.23;;;2.92;;
22967;SDS011;11650;48.106;-1.696;2023-06-22T13:12:04;4.97;;;2.90;;
22967;SDS011;11650;48.106;-1.696;2023-06-22T13:14:30;4.55;;;2.92;;
22967;SDS011;11650;48.106;-1.696;2023-06-22T13:16:56;6.97;;;2.97;;
22967;SDS011;11650;48.106;-1.696;2023-06-22T13:19:21;6.38;;;3.10;;
22967;SDS011;11650;48.106;-1.696;2023-06-22T13:21:47;5.68;;;2.80;;
22967;SDS011;11650;48.106;-1.696;2023-06-22T13:24:13;6.43;;;2.33;;
22967;SDS011;11650;48.106;-1.696;2023-06-22T13:26:38;5.07;;;2.70;;
22967;SDS011;11650;48.106;-1.696;2023-06-22T13:29:04;3.58;;;2.22;;
22967;SDS011;11650;48.106;-1.696;2023-06-22T13:31:29;6.97;;;3.10;;
22967;SDS011;11650;48.106;-1.696;2023-06-22T13:33:55;4.60;;;2.85;;
22967;SDS011;11650;48.106;-1.696;2023-06-22T13:36:21;5.43;;;2.75;;
22967;SDS011;11650;48.106;-1.696;2023-06-22T13:38:48;5.45;;;2.80;;
22967;SDS011;11650;48.106;-1.696;2023-06-22T13:41:14;5.80;;;2.70;;
22967;SDS011;11650;48.106;-1.696;2023-06-22T13:43:39;5.28;;;2.60;;
22967;SDS011;11650;48.106;-1.696;2023-06-22T13:46:05;4.57;;;2.75;;
22967;SDS011;11650;48.106;-1.696;2023-06-22T13:48:31;4.47;;;2.60;;
22967;SDS011;11650;48.106;-1.696;2023-06-22T13:50:56;3.60;;;2.30;;
22967;SDS011;11650;48.106;-1.696;2023-06-22T13:53:24;2.47;;;2.28;;
22967;SDS011;11650;48.106;-1.696;2023-06-22T13:55:51;4.40;;;2.20;;
22967;SDS011;11650;48.106;-1.696;2023-06-22T13:58:16;4.13;;;2.58;;
22967;SDS011;11650;48.106;-1.696;2023-06-22T14:00:44;4.35;;;2.38;;
22967;SDS011;11650;48.106;-1.696;2023-06-22T14:03:10;3.85;;;2.30;;
22967;SDS011;11650;48.106;-1.696;2023-06-22T14:05:36;7.03;;;2.63;;
22967;SDS011;11650;48.106;-1.696;2023-06-22T14:08:01;5.18;;;2.33;;
22967;SDS011;11650;48.106;-1.696;2023-06-22T14:10:27;4.53;;;2.10;;
22967;SDS011;11650;48.106;-1.696;2023-06-22T14:12:52;3.75;;;2.20;;
22967;SDS011;11650;48.106;-1.696;2023-06-22T14:15:18;3.88;;;2.25;;
22967;SDS011;11650;48.106;-1.696;2023-06-22T14:17:44;3.20;;;2.15;;
22967;SDS011;11650;48.106;-1.696;2023-06-22T14:20:09;4.53;;;2.25;;
22967;SDS011;11650;48.106;-1.696;2023-06-22T14:22:35;6.35;;;2.40;;
22967;SDS011;11650;48.106;-1.696;2023-06-22T14:25:01;3.63;;;2.20;;
22967;SDS011;11650;48.106;-1.696;2023-06-22T14:27:27;3.00;;;1.92;;
22967;SDS011;11650;48.106;-1.696;2023-06-22T14:29:53;5.30;;;2.33;;
22967;SDS011;11650;48.106;-1.696;2023-06-22T14:32:18;3.00;;;2.22;;
22967;SDS011;11650;48.106;-1.696;2023-06-22T14:34:44;5.00;;;2.35;;
22967;SDS011;11650;48.106;-1.696;2023-06-22T14:37:10;3.80;;;2.47;;
22967;SDS011;11650;48.106;-1.696;2023-06-22T14:39:36;3.60;;;2.13;;
22967;SDS011;11650;48.106;-1.696;2023-06-22T14:42:02;3.05;;;2.03;;
22967;SDS011;11650;48.106;-1.696;2023-06-22T14:44:28;3.25;;;2.10;;
22967;SDS011;11650;48.106;-1.696;2023-06-22T14:46:54;3.40;;;2.10;;
22967;SDS011;11650;48.106;-1.696;2023-06-22T14:49:23;4.78;;;2.20;;
22967;SDS011;11650;48.106;-1.696;2023-06-22T14:51:49;5.90;;;2.15;;